Terminal Aerodrome Forecast
Issued by NWS Cleveland, OH

Home | Current Version | Previous Version | Text Only | Print | Product List | Glossary Off
Versions: 1 2 3 4 5 6 7 8 9 10 11 12 13 14 15 16

000
FTUS41 KCLE 201720
TAFMFD
TAF
KMFD 201720Z 2018/2118 VRB04KT P6SM BKN100
     FM202300 VRB02KT P6SM FEW035
     FM210700 VRB03KT 4SM BR SKC
     FM210900 00000KT 2SM BR SCT025
      TEMPO 2110/2114 3/4SM BR OVC010
     FM211500 16004KT P6SM BKN030=

USA.gov is the U.S. government's official web portal to all federal, state and local government web resources and services.